Terminal Aerodrome Forecast
Issued by NWS

Home | Current Version | Previous Version | Text Only | Print | Product List | Glossary On
Versions: 1 2 3 4 5 6 7 8 9 10 11 12 13 14 15 16 17 18 19
608
FTUS43 KDVN 111720
TAFBRL
TAF
KBRL 111720Z 1118/1218 02006KT P6SM SCT200
     FM112200 12005KT P6SM BKN100
     FM120200 17005KT 2SM -SN BR OVC018
     FM120900 27008KT 5SM -SHSN BR OVC025
     FM121500 30015KT P6SM SCT025=

USA.gov is the U.S. government's official web portal to all federal, state and local government web resources and services.